Time;durP1;ratioP1;P1;durP2;ratioP2;P2;SDS_P1;SDS_P2;PMS_P1;PMS_P2;Temp;Humidity;BMP_temperature;BMP_pressure;BME280_temperature;BME280_humidity;BME280_pressure;Samples;Min_cycle;Max_cycle;Signal;HPM_P1;HPM_P2
2022/10/10 00:00:34;;;;;;;;;19.33;14.00;;;;;14.98;60.35;100736.19;5016133;28;45436;-61
2022/10/10 00:03:00;;;;;;;;;14.00;13.67;;;;;14.98;60.66;100731.66;5030849;28;45292;-59
2022/10/10 00:05:26;;;;;;;;;17.00;13.00;;;;;14.96;60.98;100738.94;5030815;28;45407;-60
2022/10/10 00:07:51;;;;;;;;;15.33;15.33;;;;;14.96;60.78;100738.06;5034154;28;47116;-61
2022/10/10 00:10:16;;;;;;;;;2.00;1.00;;;;;14.98;61.10;100749.56;5031493;28;45421;-60
2022/10/10 00:12:42;;;;;;;;;12.67;12.00;;;;;14.91;61.50;100729.53;5032353;28;45243;-59
2022/10/10 00:15:09;;;;;;;;;14.33;12.33;;;;;14.95;60.36;100739.91;5036156;28;45543;-59
2022/10/10 00:17:35;;;;;;;;;13.00;13.00;;;;;14.94;61.29;100740.00;5027074;28;47364;-57
2022/10/10 00:20:00;;;;;;;;;17.33;15.33;;;;;14.93;60.85;100743.66;5026087;28;45505;-58
2022/10/10 00:22:29;;;;;;;;;10.00;8.67;;;;;14.91;61.10;100734.88;5018880;28;45367;-58
2022/10/10 00:24:54;;;;;;;;;14.67;14.33;;;;;14.90;61.56;100733.19;5024620;28;45418;-59
2022/10/10 00:27:19;;;;;;;;;17.33;13.00;;;;;14.87;61.67;100731.59;5032250;28;45304;-59
2022/10/10 00:29:45;;;;;;;;;18.00;16.67;;;;;14.83;61.24;100726.53;5039304;28;45329;-62
2022/10/10 00:32:10;;;;;;;;;13.00;13.00;;;;;14.79;61.10;100720.56;5034261;27;45541;-61
2022/10/10 00:34:36;;;;;;;;;14.00;14.00;;;;;14.77;61.64;100727.00;5030925;28;45577;-60
2022/10/10 00:37:01;;;;;;;;;16.00;13.67;;;;;14.76;61.98;100731.50;5038166;28;46888;-62
2022/10/10 00:39:27;;;;;;;;;14.67;12.33;;;;;14.77;61.61;100727.84;5042277;28;45258;-61
2022/10/10 00:41:52;;;;;;;;;19.33;16.00;;;;;14.75;61.33;100736.00;5019261;28;45178;-57
2022/10/10 00:44:18;;;;;;;;;18.33;17.00;;;;;14.70;62.29;100738.13;5021714;28;45551;-58
2022/10/10 00:46:43;;;;;;;;;16.00;11.33;;;;;14.67;61.81;100735.66;5019652;28;45654;-59
2022/10/10 00:49:15;;;;;;;;;21.67;18.67;;;;;14.65;62.08;100729.56;5026102;28;45258;-57
2022/10/10 00:51:42;;;;;;;;;12.33;12.33;;;;;14.67;61.75;100724.97;5038010;28;45248;-59
2022/10/10 00:54:11;;;;;;;;;16.67;14.67;;;;;14.67;61.96;100724.09;5028562;28;45220;-58
2022/10/10 00:56:45;;;;;;;;;15.67;15.00;;;;;14.64;62.35;100727.00;5027470;28;46673;-58
2022/10/10 00:59:11;;;;;;;;;16.00;12.00;;;;;14.56;62.32;100713.28;5039400;28;45501;-59
2022/10/10 01:01:41;;;;;;;;;15.33;14.33;;;;;14.55;62.73;100716.94;5038090;28;45393;-61
2022/10/10 01:04:29;;;;;;;;;13.00;13.00;;;;;14.54;62.41;100717.91;5038890;28;45303;-59
2022/10/10 01:06:55;;;;;;;;;17.00;13.00;;;;;14.54;62.42;100726.78;5035511;28;45433;-63
2022/10/10 01:09:21;;;;;;;;;12.33;12.33;;;;;14.53;62.92;100725.09;5039734;28;45351;-61
2022/10/10 01:11:54;;;;;;;;;18.67;15.00;;;;;14.53;62.88;100724.22;5034944;28;45451;-61
2022/10/10 01:15:00;;;;;;;;;18.00;18.00;;;;;14.51;62.85;100721.66;5030256;28;45455;-62
2022/10/10 01:17:39;;;;;;;;;19.00;17.67;;;;;14.51;62.38;100727.00;5023052;28;45592;-61
2022/10/10 01:20:07;;;;;;;;;13.67;12.67;;;;;14.51;63.10;100720.81;5035716;28;45557;-63
2022/10/10 01:22:45;;;;;;;;;15.33;15.33;;;;;14.49;63.00;100723.59;5036858;28;45490;-61
2022/10/10 01:25:17;;;;;;;;;19.67;18.33;;;;;14.47;62.91;100714.81;5038876;28;45324;-62
2022/10/10 01:27:50;;;;;;;;;19.33;15.00;;;;;14.43;63.27;100718.63;5034797;28;46161;-60
2022/10/10 01:30:21;;;;;;;;;17.00;14.67;;;;;14.43;63.59;100713.28;5028178;28;45569;-63
2022/10/10 01:32:59;;;;;;;;;13.67;13.67;;;;;14.40;63.29;100718.84;5022215;28;45547;-61
2022/10/10 01:35:51;;;;;;;;;17.33;16.67;;;;;14.42;63.54;100717.75;5038363;28;45343;-60
2022/10/10 01:38:24;;;;;;;;;16.00;14.00;;;;;14.36;63.29;100718.22;5035924;28;45597;-61
2022/10/10 01:41:02;;;;;;;;;13.67;13.67;;;;;14.35;63.61;100723.66;5033594;28;45568;-63
2022/10/10 01:43:29;;;;;;;;;16.00;14.00;;;;;14.35;63.97;100726.34;5004220;28;45358;-62
2022/10/10 01:45:55;;;;;;;;;15.00;14.33;;;;;14.34;63.84;100708.59;5031304;28;45583;-61
2022/10/10 01:48:26;;;;;;;;;16.67;14.33;;;;;14.28;63.49;100714.34;5037955;28;45311;-62
2022/10/10 01:51:12;;;;;;;;;18.67;13.00;;;;;14.30;63.45;100718.63;5036430;28;45455;-61
2022/10/10 01:53:40;;;;;;;;;15.67;13.00;;;;;14.29;63.78;100718.72;5027089;28;45486;-61
2022/10/10 01:56:17;;;;;;;;;14.67;13.00;;;;;14.23;63.58;100716.50;5038344;28;45540;-61
2022/10/10 01:59:11;;;;;;;;;14.67;14.33;;;;;14.27;64.01;100715.31;5034845;28;46177;-62
2022/10/10 02:02:01;;;;;;;;;16.67;14.00;;;;;14.24;64.38;100715.53;5037333;28;45343;-62
2022/10/10 02:04:41;;;;;;;;;12.00;12.00;;;;;14.21;64.23;100713.06;5021560;28;45520;-62
2022/10/10 02:07:18;;;;;;;;;16.33;12.00;;;;;14.22;64.25;100712.09;5033309;28;45351;-61
2022/10/10 02:09:48;;;;;;;;;15.67;12.00;;;;;14.21;64.76;100707.72;5026457;28;45308;-58
2022/10/10 02:12:14;;;;;;;;;12.00;12.00;;;;;14.20;64.55;100711.38;5045210;28;45382;-61
2022/10/10 02:14:44;;;;;;;;;8.00;8.00;;;;;14.18;64.66;100714.97;5038127;28;45350;-62
2022/10/10 02:17:13;;;;;;;;;7.33;6.67;;;;;14.14;64.14;100713.47;5034529;28;45408;-61
2022/10/10 02:19:47;;;;;;;;;16.00;15.00;;;;;14.17;64.74;100712.41;5036123;28;46342;-62
2022/10/10 02:22:13;;;;;;;;;18.00;15.00;;;;;14.16;64.85;100711.56;5023215;28;45497;-61
2022/10/10 02:24:38;;;;;;;;;16.00;16.00;;;;;14.14;64.11;100708.13;5019909;28;46027;-60
2022/10/10 02:27:12;;;;;;;;;15.33;15.33;;;;;14.09;64.76;100699.59;5017837;28;45325;-56
2022/10/10 02:29:42;;;;;;;;;13.00;13.00;;;;;14.13;65.12;100706.41;4997546;28;45327;-59
2022/10/10 02:32:14;;;;;;;;;13.00;11.00;;;;;14.16;64.19;100713.38;5030980;28;45381;-59
2022/10/10 02:34:46;;;;;;;;;14.33;14.33;;;;;14.21;64.32;100702.38;5024931;28;45312;-58
2022/10/10 02:37:14;;;;;;;;;15.33;13.33;;;;;14.23;64.60;100701.31;5031991;28;45497;-59
2022/10/10 02:39:47;;;;;;;;;16.00;13.67;;;;;14.22;64.30;100704.94;5025633;28;45545;-61
2022/10/10 02:42:16;;;;;;;;;12.33;12.00;;;;;14.18;64.53;100709.63;5031942;28;45347;-57
2022/10/10 02:44:42;;;;;;;;;14.00;13.00;;;;;14.20;64.96;100708.69;5030770;28;45637;-62
2022/10/10 02:47:08;;;;;;;;;15.33;15.33;;;;;14.20;64.16;100703.34;5036789;28;45490;-61
2022/10/10 02:49:34;;;;;;;;;16.33;16.00;;;;;14.24;64.41;100707.50;5036082;28;45256;-63
2022/10/10 02:52:01;;;;;;;;;17.00;14.67;;;;;14.20;64.50;100703.34;5006140;28;45357;-63
2022/10/10 02:54:26;;;;;;;;;12.00;12.00;;;;;14.20;64.71;100708.69;5013192;28;45348;-62
2022/10/10 02:56:52;;;;;;;;;17.33;12.00;;;;;14.23;64.91;100712.00;5035810;28;45378;-62
2022/10/10 02:59:17;;;;;;;;;16.33;13.00;;;;;14.16;64.93;100703.53;5034539;28;45375;-59
2022/10/10 03:01:43;;;;;;;;;17.00;14.33;;;;;14.20;65.16;100722.06;5036895;28;45332;-58
2022/10/10 03:04:09;;;;;;;;;14.33;13.67;;;;;14.16;64.48;100706.19;5035738;28;45360;-60
2022/10/10 03:06:35;;;;;;;;;17.00;11.67;;;;;14.14;64.86;100700.09;5036542;28;45876;-60
2022/10/10 03:09:00;;;;;;;;;16.67;13.33;;;;;14.12;65.42;100710.06;5021884;28;45454;-59
2022/10/10 03:11:25;;;;;;;;;13.67;13.67;;;;;14.13;65.79;100717.13;5028105;28;45471;-62
2022/10/10 03:13:51;;;;;;;;;14.00;12.33;;;;;14.17;65.22;100709.72;5035901;28;45280;-60
2022/10/10 03:16:16;;;;;;;;;18.00;16.00;;;;;14.10;65.70;100700.44;5035754;28;45413;-61
2022/10/10 03:18:41;;;;;;;;;11.67;10.00;;;;;14.16;65.30;100708.88;5036931;28;45394;-61
2022/10/10 03:21:07;;;;;;;;;16.00;12.33;;;;;14.14;64.93;100701.94;5036272;28;45231;-57
2022/10/10 03:23:34;;;;;;;;;16.00;14.33;;;;;14.16;64.67;100703.53;5023535;28;45368;-59
2022/10/10 03:26:00;;;;;;;;;13.00;11.33;;;;;14.17;65.05;100702.56;5037125;28;45454;-59
2022/10/10 03:28:25;;;;;;;;;10.67;10.00;;;;;14.17;65.10;100707.91;5032117;28;45422;-60
2022/10/10 03:30:51;;;;;;;;;22.33;20.00;;;;;14.16;65.57;100710.69;5035408;28;45338;-61
2022/10/10 03:33:16;;;;;;;;;17.25;17.00;;;;;14.11;66.19;100699.47;5021903;28;46089;-57
2022/10/10 03:35:43;;;;;;;;;18.67;15.67;;;;;14.08;66.24;100708.56;5016723;28;45445;-58
2022/10/10 03:38:11;;;;;;;;;16.00;15.33;;;;;14.05;65.83;100707.91;5029567;28;46117;-59
2022/10/10 03:40:39;;;;;;;;;16.00;13.33;;;;;14.03;65.71;100704.47;5027804;28;45593;-58
2022/10/10 03:43:05;;;;;;;;;14.33;13.67;;;;;14.08;65.94;100708.56;5029308;28;45340;-58
2022/10/10 03:45:30;;;;;;;;;22.67;17.67;;;;;14.11;65.91;100716.38;5035754;28;45462;-57
2022/10/10 03:47:59;;;;;;;;;24.67;20.67;;;;;14.12;65.87;100714.56;4997121;28;45763;-58
2022/10/10 03:50:24;;;;;;;;;16.00;16.00;;;;;14.11;65.40;100708.34;5004659;28;45341;-61
2022/10/10 03:52:50;;;;;;;;;19.67;18.00;;;;;14.08;66.24;100699.69;4996909;28;45487;-61
2022/10/10 03:55:15;;;;;;;;;20.67;16.00;;;;;14.08;66.17;100697.88;5014818;28;45394;-57
2022/10/10 03:57:40;;;;;;;;;15.67;15.67;;;;;14.06;65.91;100699.81;5000761;28;45224;-58
2022/10/10 04:00:06;;;;;;;;;15.67;14.00;;;;;14.05;66.20;100714.09;5033831;28;49468;-60
2022/10/10 04:02:32;;;;;;;;;18.00;17.00;;;;;14.03;66.62;100710.69;5050907;28;45248;-62
2022/10/10 04:04:57;;;;;;;;;19.33;17.33;;;;;14.01;67.15;100720.63;5036543;28;45272;-59
2022/10/10 04:07:23;;;;;;;;;16.33;13.67;;;;;13.95;66.22;100701.50;5034732;28;45351;-61
2022/10/10 04:09:48;;;;;;;;;16.67;15.67;;;;;13.99;66.04;100698.50;5037188;27;45259;-59
2022/10/10 04:12:14;;;;;;;;;17.00;15.00;;;;;14.03;66.60;100710.69;5026075;28;45443;-60
2022/10/10 04:14:39;;;;;;;;;18.67;17.00;;;;;14.02;66.29;100714.31;5035072;28;45586;-62
2022/10/10 04:17:05;;;;;;;;;16.00;15.00;;;;;13.99;66.24;100693.16;5034660;28;45414;-62
2022/10/10 04:19:30;;;;;;;;;19.00;15.67;;;;;14.00;66.58;100700.22;5036114;28;45272;-62
2022/10/10 04:21:55;;;;;;;;;21.33;15.00;;;;;13.92;66.54;100691.84;5027278;28;45501;-61
2022/10/10 04:24:21;;;;;;;;;13.00;13.00;;;;;13.92;66.76;100697.19;5015104;28;45401;-60
2022/10/10 04:26:46;;;;;;;;;14.33;12.00;;;;;13.91;66.77;100700.81;5025814;28;46066;-56
2022/10/10 04:29:12;;;;;;;;;13.33;13.33;;;;;13.88;66.88;100706.38;5017977;28;45744;-60
2022/10/10 04:31:37;;;;;;;;;16.00;15.00;;;;;13.84;67.42;100694.19;5020833;28;45454;-62
2022/10/10 04:34:02;;;;;;;;;15.33;14.67;;;;;13.78;67.15;100695.44;5036057;28;45347;-60
2022/10/10 04:36:28;;;;;;;;;13.67;13.67;;;;;13.76;67.39;100697.38;5034351;28;45489;-62
2022/10/10 04:38:53;;;;;;;;;12.67;12.67;;;;;13.71;67.73;100696.84;5030970;28;45435;-62
2022/10/10 04:41:18;;;;;;;;;17.00;17.00;;;;;13.70;67.75;100700.47;5026149;28;46025;-62
2022/10/10 04:43:44;;;;;;;;;11.33;11.33;;;;;13.70;67.88;100697.81;5036456;28;47093;-59
2022/10/10 04:46:09;;;;;;;;;19.67;14.67;;;;;13.69;67.89;100701.44;5044283;28;46044;-60
2022/10/10 04:48:36;;;;;;;;;15.00;13.00;;;;;13.71;68.18;100709.34;5016139;28;45519;-60
2022/10/10 04:51:02;;;;;;;;;10.00;10.00;;;;;13.70;67.81;100711.16;5013047;28;45388;-59
2022/10/10 04:53:28;;;;;;;;;14.67;12.33;;;;;13.68;67.68;100705.06;5011041;28;45378;-59
2022/10/10 04:55:53;;;;;;;;;14.33;11.00;;;;;13.79;68.33;100717.69;5034329;28;46071;-58
2022/10/10 04:58:19;;;;;;;;;17.67;14.67;;;;;13.81;68.56;100718.47;5036638;27;45218;-63
2022/10/10 05:00:44;;;;;;;;;11.00;11.00;;;;;13.82;68.47;100710.34;5025080;28;45427;-57
2022/10/10 05:03:11;;;;;;;;;16.00;14.00;;;;;13.84;67.54;100704.88;5036110;28;45203;-63
2022/10/10 05:05:37;;;;;;;;;10.33;10.33;;;;;13.87;67.98;100704.69;5033026;28;45561;-59
2022/10/10 05:08:03;;;;;;;;;11.00;11.00;;;;;13.84;67.33;100688.84;5027845;28;45485;-60
2022/10/10 05:10:29;;;;;;;;;12.67;10.67;;;;;13.82;68.94;100686.28;5020195;28;45531;-63
2022/10/10 05:13:00;;;;;;;;;15.00;11.00;;;;;13.82;68.56;100688.97;5030882;28;46047;-60
2022/10/10 05:15:26;;;;;;;;;12.33;11.67;;;;;13.82;68.06;100693.44;5018405;28;46204;-63
2022/10/10 05:17:55;;;;;;;;;12.67;11.00;;;;;13.82;68.17;100696.13;5019603;28;45379;-59
2022/10/10 05:20:29;;;;;;;;;14.00;10.00;;;;;13.79;68.92;100713.19;5021442;28;45354;-60
2022/10/10 05:23:10;;;;;;;;;13.00;10.67;;;;;13.77;68.11;100698.22;4999727;28;45347;-57
2022/10/10 05:25:53;;;;;;;;;16.00;15.00;;;;;13.73;68.78;100710.09;5018211;28;46220;-60
2022/10/10 05:28:21;;;;;;;;;9.67;9.67;;;;;13.70;69.44;100707.66;5020268;28;45426;-58
2022/10/10 05:30:49;;;;;;;;;12.33;6.67;;;;;13.63;68.98;100690.28;5018009;28;45425;-55
2022/10/10 05:33:17;;;;;;;;;16.33;13.00;;;;;13.64;69.41;100692.84;5004524;28;45647;-60
2022/10/10 05:35:43;;;;;;;;;11.00;11.00;;;;;13.62;70.03;100700.13;5017544;28;46168;-59
2022/10/10 05:38:08;;;;;;;;;11.00;11.00;;;;;13.60;70.11;100706.53;5031507;28;45530;-58
2022/10/10 05:40:33;;;;;;;;;14.00;11.67;;;;;13.58;69.69;100696.81;5017621;28;45427;-60
2022/10/10 05:42:59;;;;;;;;;13.67;13.67;;;;;13.58;70.12;100693.28;5021215;28;45473;-66
2022/10/10 05:45:24;;;;;;;;;12.67;11.00;;;;;13.60;69.76;100702.03;5020927;28;45400;-63
2022/10/10 05:47:50;;;;;;;;;13.33;11.00;;;;;13.61;70.48;100702.91;5036227;28;45443;-64
2022/10/10 05:50:44;;;;;;;;;15.00;13.00;;;;;13.55;71.76;100704.19;5026256;28;45328;-63
2022/10/10 05:53:11;;;;;;;;;16.00;14.00;;;;;13.52;71.21;100697.19;5015786;28;46619;-62
2022/10/10 05:55:36;;;;;;;;;17.00;11.00;;;;;13.53;70.78;100696.25;5018285;28;46165;-63
2022/10/10 05:58:02;;;;;;;;;9.67;9.67;;;;;13.47;71.36;100685.13;5018197;28;45355;-60
2022/10/10 06:00:28;;;;;;;;;12.33;12.33;;;;;13.51;70.55;100690.16;5033746;28;45410;-60
2022/10/10 06:02:57;;;;;;;;;15.00;13.33;;;;;13.53;70.46;100682.88;5018337;28;45414;-61
2022/10/10 06:05:28;;;;;;;;;17.33;11.33;;;;;13.52;70.38;100685.66;5016256;28;46124;-61
2022/10/10 06:08:00;;;;;;;;;15.67;14.67;;;;;13.52;70.34;100686.50;5015704;28;45612;-64
2022/10/10 06:10:28;;;;;;;;;17.00;15.33;;;;;13.54;70.59;100691.75;5022614;28;45272;-57
2022/10/10 06:12:54;;;;;;;;;21.50;16.00;;;;;13.55;70.88;100694.34;5020896;28;45707;-59
2022/10/10 06:15:19;;;;;;;;;16.75;15.25;;;;;13.54;70.63;100692.63;5021927;28;46080;-60
2022/10/10 06:17:45;;;;;;;;;24.25;19.00;;;;;13.44;70.70;100680.00;5033907;28;45314;-57
2022/10/10 06:20:10;;;;;;;;;34.25;28.00;;;;;13.55;71.06;100704.19;5017744;28;45667;-58
2022/10/10 06:22:36;;;;;;;;;37.25;31.00;;;;;13.52;70.48;100689.19;5021205;28;45448;-58
2022/10/10 06:25:01;;;;;;;;;57.75;41.25;;;;;13.53;70.64;100696.25;5037477;28;45781;-60
2022/10/10 06:27:27;;;;;;;;;32.25;28.00;;;;;13.47;70.51;100696.66;5037758;28;45814;-58
2022/10/10 06:29:52;;;;;;;;;62.50;47.25;;;;;13.53;70.97;100706.94;5019551;28;45593;-59
2022/10/10 06:32:18;;;;;;;;;31.25;30.25;;;;;13.58;70.43;100715.50;5025150;28;45504;-60
2022/10/10 06:34:43;;;;;;;;;15.75;15.50;;;;;13.62;70.77;100721.50;5035203;28;45399;-61
2022/10/10 06:37:11;;;;;;;;;16.00;12.67;;;;;13.42;70.84;100682.75;5014837;28;45409;-57
2022/10/10 06:39:37;;;;;;;;;10.00;10.00;;;;;13.67;70.69;100722.06;5025130;28;45544;-60
2022/10/10 06:42:03;;;;;;;;;12.33;12.33;;;;;13.77;70.67;100733.84;5044570;28;45708;-62
2022/10/10 06:44:28;;;;;;;;;12.33;11.00;;;;;13.81;70.79;100731.84;5016567;28;45450;-60
2022/10/10 06:46:54;;;;;;;;;14.33;14.33;;;;;13.80;70.14;100728.31;5024378;28;45517;-60
2022/10/10 06:49:22;;;;;;;;;18.67;16.00;;;;;13.83;69.78;100724.56;5020732;28;45423;-57
2022/10/10 06:51:50;;;;;;;;;24.67;21.67;;;;;13.82;70.39;100726.38;5032476;28;45251;-60
2022/10/10 06:54:15;;;;;;;;;23.50;23.50;;;;;13.84;69.96;100726.28;5014321;28;46088;-59
2022/10/10 06:56:41;;;;;;;;;24.00;23.00;;;;;13.93;69.99;100739.00;5023063;28;45309;-57
2022/10/10 06:59:06;;;;;;;;;14.00;14.00;;;;;13.99;70.14;100751.13;5034821;28;45507;-59
2022/10/10 07:01:31;;;;;;;;;12.00;12.00;;;;;14.03;69.73;100756.16;5018090;28;46009;-56
2022/10/10 07:04:00;;;;;;;;;11.00;9.00;;;;;14.04;69.43;100765.88;5020142;28;45456;-57
2022/10/10 07:06:26;;;;;;;;;17.00;11.00;;;;;14.17;69.47;100771.25;5018940;28;45280;-59
2022/10/10 07:08:51;;;;;;;;;17.00;15.00;;;;;14.22;69.22;100769.13;5017771;28;45264;-58
2022/10/10 07:11:17;;;;;;;;;20.33;12.00;;;;;14.28;68.69;100779.41;5025854;28;45367;-58
2022/10/10 07:13:42;;;;;;;;;15.00;12.00;;;;;14.33;68.96;100773.75;5022232;28;45941;-59
2022/10/10 07:16:09;;;;;;;;;19.00;12.33;;;;;14.33;68.63;100771.09;5025945;28;45556;-58
2022/10/10 07:18:36;;;;;;;;;17.33;15.33;;;;;14.40;68.45;100772.34;5019585;28;45413;-57
2022/10/10 07:21:02;;;;;;;;;17.67;16.00;;;;;14.53;67.92;100775.06;5037611;28;45623;-62
2022/10/10 07:23:30;;;;;;;;;22.67;18.00;;;;;14.62;67.97;100764.59;5022423;28;46261;-57
2022/10/10 07:26:06;;;;;;;;;24.00;21.67;;;;;14.67;68.33;100770.47;5015888;28;45343;-58
2022/10/10 07:28:34;;;;;;;;;16.67;14.33;;;;;14.67;68.03;100767.78;5012982;28;45478;-59
2022/10/10 07:31:02;;;;;;;;;14.00;14.00;;;;;14.70;67.46;100772.91;5030766;28;45482;-58
2022/10/10 07:33:37;;;;;;;;;13.67;13.33;;;;;14.74;67.89;100771.75;5011170;28;45973;-57
2022/10/10 07:36:03;;;;;;;;;14.00;14.00;;;;;14.77;67.50;100773.34;5011516;28;45754;-56
2022/10/10 07:38:29;;;;;;;;;19.00;13.33;;;;;14.80;68.08;100766.91;5010987;28;45403;-58
2022/10/10 07:40:54;;;;;;;;;16.33;15.00;;;;;14.86;67.75;100769.19;5021422;28;45475;-58
2022/10/10 07:43:19;;;;;;;;;11.33;11.33;;;;;14.81;67.88;100744.53;5030889;28;45817;-59
2022/10/10 07:45:45;;;;;;;;;22.33;21.33;;;;;14.97;67.93;100777.28;5051219;28;45521;-59
2022/10/10 07:48:10;;;;;;;;;20.33;17.33;;;;;15.04;67.44;100789.28;5033936;28;45748;-60
2022/10/10 07:50:39;;;;;;;;;20.00;15.33;;;;;15.11;67.15;100787.91;5036271;28;45331;-59
2022/10/10 07:53:05;;;;;;;;;18.00;16.67;;;;;15.14;67.40;100787.66;5024170;28;45360;-58
2022/10/10 07:55:31;;;;;;;;;21.67;19.00;;;;;15.17;67.23;100790.13;5016908;28;45863;-59
2022/10/10 07:57:58;;;;;;;;;19.00;16.67;;;;;15.22;67.14;100793.31;5015764;28;45876;-59
2022/10/10 08:00:23;;;;;;;;;20.33;19.33;;;;;15.26;66.95;100794.81;5032295;28;45536;-56
2022/10/10 08:02:50;;;;;;;;;21.00;21.00;;;;;15.28;67.19;100787.53;5018244;28;45373;-59
2022/10/10 08:05:16;;;;;;;;;19.33;19.00;;;;;15.36;66.99;100784.25;5030909;28;45526;-57
2022/10/10 08:07:41;;;;;;;;;17.33;14.67;;;;;15.38;67.07;100786.88;5033453;28;45683;-58
2022/10/10 08:10:08;;;;;;;;;19.67;14.67;;;;;15.47;66.70;100786.16;5026425;28;45742;-58
2022/10/10 08:12:34;;;;;;;;;14.33;13.33;;;;;15.53;66.49;100794.63;5002746;28;47053;-59
2022/10/10 08:14:59;;;;;;;;;17.33;13.00;;;;;15.54;66.48;100787.44;5030560;28;45541;-58
2022/10/10 08:17:25;;;;;;;;;15.33;13.67;;;;;15.53;66.54;100802.66;5035399;28;45192;-57
2022/10/10 08:19:50;;;;;;;;;18.67;14.00;;;;;15.58;66.56;100799.66;5036137;28;45414;-57
2022/10/10 08:22:16;;;;;;;;;16.33;15.67;;;;;15.61;66.61;100804.81;5035411;28;45432;-57
2022/10/10 08:24:41;;;;;;;;;23.00;16.67;;;;;15.67;66.62;100807.06;5035301;28;45739;-56
2022/10/10 08:27:06;;;;;;;;;13.33;13.33;;;;;15.73;66.30;100797.69;5012315;28;45368;-58
2022/10/10 08:29:35;;;;;;;;;19.00;18.00;;;;;15.79;66.67;100797.25;5014759;28;45553;-56
2022/10/10 08:32:00;;;;;;;;;19.67;14.67;;;;;15.82;66.38;100805.91;5023218;28;47065;-57
2022/10/10 08:34:26;;;;;;;;;15.33;13.00;;;;;15.89;66.20;100811.69;5028234;28;45550;-57
2022/10/10 08:36:51;;;;;;;;;14.33;14.00;;;;;15.85;66.27;100810.19;5033931;28;45489;-58
2022/10/10 08:39:16;;;;;;;;;14.33;14.33;;;;;15.95;66.17;100830.00;5027710;28;45566;-59
2022/10/10 08:41:50;;;;;;;;;15.00;14.00;;;;;16.00;66.25;100835.00;5020200;28;45391;-56
2022/10/10 08:44:34;;;;;;;;;20.33;14.67;;;;;16.07;65.98;100828.22;5036049;28;45463;-58
2022/10/10 08:47:14;;;;;;;;;18.33;15.00;;;;;16.11;65.88;100832.38;5037619;28;45402;-57
2022/10/10 08:49:54;;;;;;;;;15.00;13.67;;;;;16.07;66.33;100830.91;5039598;28;45508;-56
2022/10/10 08:52:56;;;;;;;;;16.67;15.33;;;;;15.94;66.56;100817.53;5052504;28;45477;-57
2022/10/10 08:55:32;;;;;;;;;15.00;13.67;;;;;16.01;66.53;100828.66;5037776;28;45395;-60
2022/10/10 08:58:19;;;;;;;;;17.67;14.00;;;;;16.02;66.66;100841.13;5037450;28;45378;-56
2022/10/10 09:00:58;;;;;;;;;20.00;18.67;;;;;16.05;66.88;100841.75;5038142;28;45362;-59
2022/10/10 09:03:29;;;;;;;;;21.67;16.33;;;;;16.03;66.46;100826.75;5034456;28;48529;-58
2022/10/10 09:06:13;;;;;;;;;17.67;16.67;;;;;16.17;66.58;100834.59;5019312;28;45408;-57
2022/10/10 09:09:15;;;;;;;;;19.33;15.33;;;;;16.27;66.54;100843.66;5017932;28;45273;-60
2022/10/10 09:11:41;;;;;;;;;24.00;20.67;;;;;16.43;66.38;100844.22;4985159;28;45587;-59
2022/10/10 09:14:24;;;;;;;;;17.00;16.67;;;;;16.44;66.13;100837.03;4999634;28;45495;-59
2022/10/10 09:16:59;;;;;;;;;15.67;14.00;;;;;16.51;65.68;100852.53;4999032;28;45453;-61
2022/10/10 09:19:36;;;;;;;;;15.67;14.00;;;;;16.55;65.93;100852.31;5014644;28;45200;-59
2022/10/10 09:22:10;;;;;;;;;17.67;15.67;;;;;16.60;65.67;100855.47;4999228;28;45466;-60
2022/10/10 09:24:42;;;;;;;;;18.00;15.67;;;;;16.62;66.06;100856.22;5000445;28;45478;-58
2022/10/10 09:27:13;;;;;;;;;14.00;14.00;;;;;16.68;66.00;100855.78;5038670;28;45225;-60
2022/10/10 09:29:42;;;;;;;;;17.00;14.33;;;;;16.75;65.94;100855.19;5038293;28;45331;-60
2022/10/10 09:32:20;;;;;;;;;17.33;12.00;;;;;16.75;65.95;100851.63;5037342;27;45640;-59
2022/10/10 09:34:51;;;;;;;;;13.67;13.67;;;;;16.88;66.11;100859.59;5018106;28;45469;-59
2022/10/10 09:37:22;;;;;;;;;15.33;15.33;;;;;16.97;65.67;100859.75;5018164;28;45348;-58
2022/10/10 09:39:55;;;;;;;;;15.00;15.00;;;;;17.02;65.61;100865.59;5018613;28;45310;-61
2022/10/10 09:42:34;;;;;;;;;15.67;12.33;;;;;17.05;65.52;100864.50;5032673;28;45344;-60
2022/10/10 09:45:00;;;;;;;;;15.67;12.00;;;;;17.16;65.38;100883.31;5036778;28;45534;-58
2022/10/10 09:47:26;;;;;;;;;14.33;13.00;;;;;17.21;65.64;100899.09;5038676;28;45418;-61
2022/10/10 09:49:52;;;;;;;;;13.33;13.33;;;;;17.25;65.42;100903.25;5038472;28;45958;-60
2022/10/10 09:52:29;;;;;;;;;11.00;11.00;;;;;17.33;65.06;100906.19;5038234;28;45804;-60
2022/10/10 09:55:01;;;;;;;;;13.67;13.33;;;;;17.36;65.31;100903.25;5038084;28;46219;-56
2022/10/10 09:57:39;;;;;;;;;15.00;14.67;;;;;17.38;65.29;100904.00;5038258;28;45335;-59
2022/10/10 10:00:20;;;;;;;;;15.00;13.00;;;;;17.43;65.21;100914.38;5036278;28;45508;-59
2022/10/10 10:03:01;;;;;;;;;16.33;12.67;;;;;17.43;65.14;100912.53;5020520;28;45444;-58
2022/10/10 10:05:27;;;;;;;;;15.33;12.33;;;;;17.53;65.12;100908.13;5018317;28;46407;-58
2022/10/10 10:07:53;;;;;;;;;15.67;14.00;;;;;17.57;64.78;100898.84;5017995;28;45431;-57
2022/10/10 10:10:21;;;;;;;;;15.67;15.00;;;;;17.65;64.81;100912.53;5018168;28;45433;-58
2022/10/10 10:12:47;;;;;;;;;16.33;12.00;;;;;17.69;64.78;100919.41;5018940;28;45503;-59
2022/10/10 10:15:15;;;;;;;;;11.67;10.33;;;;;17.79;64.73;100913.28;5018251;28;46202;-59
2022/10/10 10:17:41;;;;;;;;;9.67;9.67;;;;;17.81;64.06;100916.69;5017117;28;47199;-59
2022/10/10 10:20:28;;;;;;;;;14.00;12.67;;;;;17.82;64.39;100919.25;5018169;28;45328;-59
2022/10/10 10:22:54;;;;;;;;;16.00;15.00;;;;;17.81;64.26;100916.69;5018375;28;45457;-59
2022/10/10 10:25:32;;;;;;;;;16.00;10.67;;;;;17.89;64.05;100920.50;5017462;28;45432;-56
2022/10/10 10:28:20;;;;;;;;;19.00;14.00;;;;;17.94;63.97;100920.09;5016244;28;45395;-61
2022/10/10 10:30:47;;;;;;;;;11.67;11.67;;;;;18.04;63.64;100926.44;5017321;28;45390;-56
2022/10/10 10:33:24;;;;;;;;;15.33;13.67;;;;;18.03;63.86;100927.44;5017697;28;45469;-60
2022/10/10 10:36:18;;;;;;;;;17.33;12.67;;;;;18.08;63.72;100925.22;5027811;28;46014;-58
2022/10/10 10:38:46;;;;;;;;;15.67;13.00;;;;;18.17;63.46;100924.47;5018013;28;45521;-57
2022/10/10 10:41:32;;;;;;;;;12.00;11.00;;;;;18.23;63.29;100929.34;5037432;28;45307;-58
2022/10/10 10:44:35;;;;;;;;;14.00;10.00;;;;;18.25;63.08;100930.06;5027875;28;45279;-57
2022/10/10 10:47:33;;;;;;;;;8.00;8.00;;;;;18.26;63.14;100939.84;5013728;28;45550;-58
2022/10/10 10:49:58;;;;;;;;;13.00;11.00;;;;;18.20;63.05;100940.34;5012538;28;45835;-57
2022/10/10 10:52:54;;;;;;;;;12.67;11.33;;;;;18.23;63.02;100950.03;5013050;28;45490;-58
2022/10/10 10:55:25;;;;;;;;;11.67;11.67;;;;;18.30;63.17;100956.59;5008484;28;45955;-57
2022/10/10 10:58:15;;;;;;;;;14.67;11.67;;;;;18.34;62.86;100957.19;5019774;28;45482;-60
2022/10/10 11:01:10;;;;;;;;;11.33;9.33;;;;;18.33;63.19;100959.03;5019470;28;45164;-59
2022/10/10 11:04:04;;;;;;;;;10.00;10.00;;;;;18.40;62.86;100957.56;5028359;28;45406;-58
2022/10/10 11:06:44;;;;;;;;;14.67;10.67;;;;;18.50;62.70;100974.69;5019681;28;45444;-62
2022/10/10 11:09:19;;;;;;;;;15.00;12.33;;;;;18.58;62.63;100971.31;5016752;28;46161;-58
2022/10/10 11:12:24;;;;;;;;;13.33;11.00;;;;;18.70;62.40;100975.72;5017303;28;45534;-60
2022/10/10 11:15:08;;;;;;;;;12.00;12.00;;;;;18.80;61.92;100976.66;5015799;28;45708;-60
2022/10/10 11:17:49;;;;;;;;;10.67;9.33;;;;;18.88;61.65;100981.41;5014466;28;45502;-59
2022/10/10 11:20:29;;;;;;;;;17.33;12.33;;;;;18.92;61.77;100977.47;5015235;28;46247;-58
2022/10/10 11:23:05;;;;;;;;;14.67;11.67;;;;;19.00;61.23;100993.81;5016629;28;46007;-60